sensor_id;sensor_type;location;lat;lon;timestamp;pressure;altitude;pressure_sealevel;temperature;humidity
19777;BME280;10047;42.490;26.012;2023-04-02T00:04:10;99883.34;;;9.30;100.00
19777;BME280;10047;42.490;26.012;2023-04-02T00:06:38;99918.47;;;9.45;100.00
19777;BME280;10047;42.490;26.012;2023-04-02T00:11:40;99889.47;;;9.23;100.00
19777;BME280;10047;42.490;26.012;2023-04-02T00:14:26;99879.13;;;9.30;100.00
19777;BME280;10047;42.490;26.012;2023-04-02T00:16:53;99880.41;;;9.11;100.00
19777;BME280;10047;42.490;26.012;2023-04-02T00:22:18;99825.91;;;8.58;100.00
19777;BME280;10047;42.490;26.012;2023-04-02T00:24:43;99830.97;;;8.58;100.00
19777;BME280;10047;42.490;26.012;2023-04-02T00:27:11;99827.63;;;9.27;100.00
19777;BME280;10047;42.490;26.012;2023-04-02T00:29:45;99834.50;;;9.22;100.00
19777;BME280;10047;42.490;26.012;2023-04-02T00:32:17;99821.63;;;8.96;100.00
19777;BME280;10047;42.490;26.012;2023-04-02T00:34:44;99810.50;;;9.03;100.00
19777;BME280;10047;42.490;26.012;2023-04-02T00:37:16;99809.53;;;9.07;100.00
19777;BME280;10047;42.490;26.012;2023-04-02T00:39:42;99785.44;;;8.55;100.00
19777;BME280;10047;42.490;26.012;2023-04-02T00:42:10;99808.09;;;8.61;100.00
19777;BME280;10047;42.490;26.012;2023-04-02T00:44:39;99860.59;;;8.92;100.00
19777;BME280;10047;42.490;26.012;2023-04-02T00:47:30;99860.72;;;8.86;100.00
19777;BME280;10047;42.490;26.012;2023-04-02T00:50:04;99838.66;;;8.55;100.00
19777;BME280;10047;42.490;26.012;2023-04-02T00:52:32;99843.06;;;8.46;100.00
19777;BME280;10047;42.490;26.012;2023-04-02T00:57:31;99806.03;;;8.40;100.00
19777;BME280;10047;42.490;26.012;2023-04-02T01:02:38;99799.59;;;8.27;100.00
19777;BME280;10047;42.490;26.012;2023-04-02T01:10:25;99818.50;;;8.08;100.00
19777;BME280;10047;42.490;26.012;2023-04-02T01:15:39;99821.75;;;8.15;100.00
19777;BME280;10047;42.490;26.012;2023-04-02T01:18:25;99754.94;;;8.22;100.00
19777;BME280;10047;42.490;26.012;2023-04-02T01:26:16;99808.59;;;8.39;100.00
19777;BME280;10047;42.490;26.012;2023-04-02T01:29:08;99809.09;;;8.15;100.00
19777;BME280;10047;42.490;26.012;2023-04-02T01:31:35;99731.50;;;7.74;100.00
19777;BME280;10047;42.490;26.012;2023-04-02T01:34:03;99764.75;;;7.56;100.00
19777;BME280;10047;42.490;26.012;2023-04-02T01:39:44;99815.72;;;8.60;100.00
19777;BME280;10047;42.490;26.012;2023-04-02T01:42:33;99807.44;;;8.53;100.00
19777;BME280;10047;42.490;26.012;2023-04-02T01:45:04;99768.38;;;8.63;100.00
19777;BME280;10047;42.490;26.012;2023-04-02T01:47:32;99746.50;;;8.59;100.00
19777;BME280;10047;42.490;26.012;2023-04-02T01:50:43;99759.78;;;8.69;100.00
19777;BME280;10047;42.490;26.012;2023-04-02T01:52:51;99763.63;;;8.84;100.00
19777;BME280;10047;42.490;26.012;2023-04-02T01:55:28;99769.34;;;8.92;100.00
19777;BME280;10047;42.490;26.012;2023-04-02T01:57:55;99798.31;;;8.82;100.00
19777;BME280;10047;42.490;26.012;2023-04-02T02:00:23;99810.78;;;8.55;100.00
19777;BME280;10047;42.490;26.012;2023-04-02T02:02:50;99812.47;;;7.74;100.00
19777;BME280;10047;42.490;26.012;2023-04-02T02:05:19;99788.91;;;7.72;100.00
19777;BME280;10047;42.490;26.012;2023-04-02T02:07:45;99770.84;;;7.46;100.00
19777;BME280;10047;42.490;26.012;2023-04-02T02:10:17;99836.94;;;8.15;100.00
19777;BME280;10047;42.490;26.012;2023-04-02T02:12:46;99828.06;;;7.96;100.00
19777;BME280;10047;42.490;26.012;2023-04-02T02:15:20;99794.28;;;7.98;100.00
19777;BME280;10047;42.490;26.012;2023-04-02T02:17:47;99801.16;;;7.92;100.00
19777;BME280;10047;42.490;26.012;2023-04-02T02:20:13;99802.53;;;7.63;100.00
19777;BME280;10047;42.490;26.012;2023-04-02T02:22:42;99845.94;;;7.88;100.00
19777;BME280;10047;42.490;26.012;2023-04-02T02:25:15;99835.50;;;8.03;100.00
19777;BME280;10047;42.490;26.012;2023-04-02T02:28:07;99846.22;;;8.16;100.00
19777;BME280;10047;42.490;26.012;2023-04-02T02:30:38;99857.31;;;8.09;100.00
19777;BME280;10047;42.490;26.012;2023-04-02T02:38:40;99866.56;;;7.68;100.00
19777;BME280;10047;42.490;26.012;2023-04-02T02:41:15;99865.75;;;7.65;100.00
19777;BME280;10047;42.490;26.012;2023-04-02T02:43:49;99847.13;;;7.70;100.00
19777;BME280;10047;42.490;26.012;2023-04-02T02:46:16;99805.38;;;7.48;100.00
19777;BME280;10047;42.490;26.012;2023-04-02T02:48:45;99866.56;;;7.67;100.00
19777;BME280;10047;42.490;26.012;2023-04-02T02:51:19;99816.28;;;7.50;100.00
19777;BME280;10047;42.490;26.012;2023-04-02T02:53:52;99851.81;;;7.90;100.00
19777;BME280;10047;42.490;26.012;2023-04-02T02:56:19;99856.41;;;7.70;100.00
19777;BME280;10047;42.490;26.012;2023-04-02T02:58:47;99825.16;;;7.71;100.00
19777;BME280;10047;42.490;26.012;2023-04-02T03:01:14;99849.66;;;7.69;100.00
19777;BME280;10047;42.490;26.012;2023-04-02T03:03:40;99795.72;;;7.21;100.00
19777;BME280;10047;42.490;26.012;2023-04-02T03:06:08;99860.72;;;7.63;100.00
19777;BME280;10047;42.490;26.012;2023-04-02T03:08:44;99856.41;;;7.70;100.00
19777;BME280;10047;42.490;26.012;2023-04-02T03:11:15;99850.75;;;7.56;100.00
19777;BME280;10047;42.490;26.012;2023-04-02T03:13:46;99805.63;;;7.33;100.00
19777;BME280;10047;42.490;26.012;2023-04-02T03:22:03;99850.41;;;7.74;100.00
19777;BME280;10047;42.490;26.012;2023-04-02T03:27:17;99798.81;;;7.38;100.00
19777;BME280;10047;42.490;26.012;2023-04-02T03:29:57;99843.94;;;7.59;100.00
19777;BME280;10047;42.490;26.012;2023-04-02T03:32:29;99853.00;;;7.71;100.00
19777;BME280;10047;42.490;26.012;2023-04-02T03:35:04;99866.41;;;7.76;100.00
19777;BME280;10047;42.490;26.012;2023-04-02T03:37:40;99875.78;;;7.69;100.00
19777;BME280;10047;42.490;26.012;2023-04-02T03:40:14;99875.56;;;7.81;100.00
19777;BME280;10047;42.490;26.012;2023-04-02T03:42:49;99871.28;;;7.85;100.00
19777;BME280;10047;42.490;26.012;2023-04-02T03:45:23;99836.41;;;7.55;100.00
19777;BME280;10047;42.490;26.012;2023-04-02T03:48:01;99887.22;;;7.90;100.00
19777;BME280;10047;42.490;26.012;2023-04-02T03:50:39;99877.06;;;7.92;100.00
19777;BME280;10047;42.490;26.012;2023-04-02T03:53:07;99889.50;;;8.04;100.00
19777;BME280;10047;42.490;26.012;2023-04-02T03:55:35;99895.63;;;7.92;100.00
19777;BME280;10047;42.490;26.012;2023-04-02T04:00:48;99855.91;;;7.96;100.00
19777;BME280;10047;42.490;26.012;2023-04-02T04:03:40;99902.59;;;8.22;100.00
19777;BME280;10047;42.490;26.012;2023-04-02T04:06:27;99865.63;;;7.71;100.00
19777;BME280;10047;42.490;26.012;2023-04-02T04:11:43;99900.59;;;7.97;100.00
19777;BME280;10047;42.490;26.012;2023-04-02T04:16:53;99911.19;;;7.71;100.00
19777;BME280;10047;42.490;26.012;2023-04-02T04:19:38;99868.28;;;7.65;100.00
19777;BME280;10047;42.490;26.012;2023-04-02T04:22:14;99873.22;;;7.72;100.00
19777;BME280;10047;42.490;26.012;2023-04-02T04:24:39;99927.47;;;8.04;100.00
19777;BME280;10047;42.490;26.012;2023-04-02T04:27:30;99947.78;;;7.99;100.00
19777;BME280;10047;42.490;26.012;2023-04-02T04:30:12;99923.19;;;8.07;100.00
19777;BME280;10047;42.490;26.012;2023-04-02T04:32:47;99897.75;;;8.13;100.00
19777;BME280;10047;42.490;26.012;2023-04-02T04:35:36;99924.50;;;8.28;100.00
19777;BME280;10047;42.490;26.012;2023-04-02T04:38:19;99935.16;;;8.42;100.00
19777;BME280;10047;42.490;26.012;2023-04-02T04:40:54;99925.91;;;9.19;100.00
19777;BME280;10047;42.490;26.012;2023-04-02T04:43:43;99936.09;;;8.39;100.00
19777;BME280;10047;42.490;26.012;2023-04-02T04:46:15;99939.69;;;8.26;100.00
19777;BME280;10047;42.490;26.012;2023-04-02T04:48:57;99903.53;;;8.18;100.00
19777;BME280;10047;42.490;26.012;2023-04-02T04:51:28;99957.84;;;8.49;100.00
19777;BME280;10047;42.490;26.012;2023-04-02T04:53:59;99952.81;;;8.46;100.00
19777;BME280;10047;42.490;26.012;2023-04-02T04:56:27;99957.44;;;8.26;100.00
19777;BME280;10047;42.490;26.012;2023-04-02T04:59:04;99911.44;;;8.03;100.00
19777;BME280;10047;42.490;26.012;2023-04-02T05:02:16;99951.59;;;8.65;100.00
19777;BME280;10047;42.490;26.012;2023-04-02T05:04:48;99923.78;;;8.20;100.00
19777;BME280;10047;42.490;26.012;2023-04-02T05:07:17;99920.69;;;8.48;100.00
19777;BME280;10047;42.490;26.012;2023-04-02T05:12:35;99944.56;;;8.78;100.00
19777;BME280;10047;42.490;26.012;2023-04-02T05:20:35;99951.06;;;8.90;100.00
19777;BME280;10047;42.490;26.012;2023-04-02T05:25:54;99971.09;;;9.37;100.00
19777;BME280;10047;42.490;26.012;2023-04-02T05:31:29;99969.34;;;9.04;100.00
19777;BME280;10047;42.490;26.012;2023-04-02T05:34:01;99895.19;;;8.94;100.00
19777;BME280;10047;42.490;26.012;2023-04-02T05:36:28;99927.63;;;9.17;100.00
19777;BME280;10047;42.490;26.012;2023-04-02T05:38:55;99977.84;;;9.38;100.00
19777;BME280;10047;42.490;26.012;2023-04-02T05:41:42;99976.59;;;9.55;100.00
19777;BME280;10047;42.490;26.012;2023-04-02T05:44:19;99984.59;;;9.39;100.00
19777;BME280;10047;42.490;26.012;2023-04-02T05:46:53;99949.88;;;9.41;100.00
19777;BME280;10047;42.490;26.012;2023-04-02T05:49:35;99947.66;;;9.27;100.00
19777;BME280;10047;42.490;26.012;2023-04-02T05:52:07;99974.75;;;9.25;100.00
19777;BME280;10047;42.490;26.012;2023-04-02T05:54:50;99978.47;;;9.47;100.00
19777;BME280;10047;42.490;26.012;2023-04-02T05:57:22;100012.53;;;10.06;100.00
19777;BME280;10047;42.490;26.012;2023-04-02T05:59:52;100002.47;;;10.37;100.00
19777;BME280;10047;42.490;26.012;2023-04-02T06:02:32;99946.63;;;10.35;100.00
19777;BME280;10047;42.490;26.012;2023-04-02T06:05:10;100000.16;;;10.59;100.00
19777;BME280;10047;42.490;26.012;2023-04-02T06:10:16;99987.66;;;11.09;100.00
19777;BME280;10047;42.490;26.012;2023-04-02T06:12:47;99942.94;;;10.75;100.00
19777;BME280;10047;42.490;26.012;2023-04-02T06:15:18;99958.56;;;11.72;100.00
19777;BME280;10047;42.490;26.012;2023-04-02T06:17:57;99987.53;;;12.18;100.00
19777;BME280;10047;42.490;26.012;2023-04-02T06:20:24;99946.25;;;11.84;100.00
19777;BME280;10047;42.490;26.012;2023-04-02T06:23:44;99952.19;;;12.56;100.00
19777;BME280;10047;42.490;26.012;2023-04-02T06:25:56;99969.78;;;13.51;100.00
19777;BME280;10047;42.490;26.012;2023-04-02T06:28:27;99970.13;;;13.64;100.00
19777;BME280;10047;42.490;26.012;2023-04-02T06:31:00;99955.34;;;13.92;100.00
19777;BME280;10047;42.490;26.012;2023-04-02T06:33:27;99952.97;;;12.35;100.00
19777;BME280;10047;42.490;26.012;2023-04-02T06:35:53;99962.66;;;13.79;100.00
19777;BME280;10047;42.490;26.012;2023-04-02T06:38:23;99905.50;;;13.62;100.00
19777;BME280;10047;42.490;26.012;2023-04-02T06:41:20;99924.69;;;13.30;100.00
19777;BME280;10047;42.490;26.012;2023-04-02T06:48:49;99884.47;;;13.96;100.00
19777;BME280;10047;42.490;26.012;2023-04-02T06:51:17;99926.25;;;13.13;100.00
19777;BME280;10047;42.490;26.012;2023-04-02T06:53:46;99884.16;;;14.22;100.00
19777;BME280;10047;42.490;26.012;2023-04-02T06:59:11;99894.47;;;14.76;100.00
19777;BME280;10047;42.490;26.012;2023-04-02T07:01:50;99892.06;;;15.44;100.00
19777;BME280;10047;42.490;26.012;2023-04-02T07:04:18;99828.09;;;14.73;100.00
19777;BME280;10047;42.490;26.012;2023-04-02T07:06:45;99847.47;;;15.13;100.00
19777;BME280;10047;42.490;26.012;2023-04-02T07:09:11;99836.44;;;15.46;100.00
19777;BME280;10047;42.490;26.012;2023-04-02T07:11:36;99818.03;;;14.87;100.00
19777;BME280;10047;42.490;26.012;2023-04-02T07:14:02;99785.25;;;14.59;100.00
19777;BME280;10047;42.490;26.012;2023-04-02T07:16:30;99823.63;;;14.59;100.00
19777;BME280;10047;42.490;26.012;2023-04-02T07:18:56;99791.16;;;14.06;100.00
19777;BME280;10047;42.490;26.012;2023-04-02T07:21:25;99854.91;;;14.64;100.00
19777;BME280;10047;42.490;26.012;2023-04-02T07:23:52;99790.91;;;14.83;100.00
19777;BME280;10047;42.490;26.012;2023-04-02T07:26:20;99785.41;;;14.91;100.00
19777;BME280;10047;42.490;26.012;2023-04-02T07:28:47;99793.78;;;15.28;100.00
19777;BME280;10047;42.490;26.012;2023-04-02T07:31:18;99777.91;;;15.87;100.00
19777;BME280;10047;42.490;26.012;2023-04-02T07:33:44;99719.75;;;15.39;100.00
19777;BME280;10047;42.490;26.012;2023-04-02T07:36:21;99723.56;;;15.81;100.00
19777;BME280;10047;42.490;26.012;2023-04-02T07:38:47;99704.94;;;15.46;100.00
19777;BME280;10047;42.490;26.012;2023-04-02T07:41:13;99693.94;;;15.59;100.00
19777;BME280;10047;42.490;26.012;2023-04-02T07:43:40;99654.06;;;15.23;100.00
19777;BME280;10047;42.490;26.012;2023-04-02T07:46:06;99664.88;;;15.76;100.00
19777;BME280;10047;42.490;26.012;2023-04-02T07:48:32;99643.41;;;16.54;100.00
19777;BME280;10047;42.490;26.012;2023-04-02T07:50:58;99566.75;;;16.76;100.00
19777;BME280;10047;42.490;26.012;2023-04-02T07:53:34;99473.81;;;16.57;100.00
19777;BME280;10047;42.490;26.012;2023-04-02T07:56:03;99364.94;;;16.87;100.00
19777;BME280;10047;42.490;26.012;2023-04-02T07:58:30;99256.19;;;17.13;100.00
19777;BME280;10047;42.490;26.012;2023-04-02T08:00:57;99072.88;;;17.27;100.00
19777;BME280;10047;42.490;26.012;2023-04-02T08:03:23;98920.75;;;16.51;100.00
19777;BME280;10047;42.490;26.012;2023-04-02T08:05:53;98705.50;;;16.70;100.00
19777;BME280;10047;42.490;26.012;2023-04-02T08:08:20;98397.94;;;16.97;100.00
19777;BME280;10047;42.490;26.012;2023-04-02T08:10:46;98225.22;;;17.16;100.00
19777;BME280;10047;42.490;26.012;2023-04-02T08:13:11;98163.94;;;17.11;100.00
19777;BME280;10047;42.490;26.012;2023-04-02T08:15:37;97912.03;;;17.81;100.00
19777;BME280;10047;42.490;26.012;2023-04-02T08:18:02;97671.25;;;17.55;100.00
19777;BME280;10047;42.490;26.012;2023-04-02T08:20:28;97548.16;;;17.34;100.00
19777;BME280;10047;42.490;26.012;2023-04-02T08:22:53;97379.91;;;17.12;100.00
19777;BME280;10047;42.490;26.012;2023-04-02T08:25:19;97302.22;;;17.87;100.00
19777;BME280;10047;42.490;26.012;2023-04-02T08:27:47;97256.50;;;18.07;100.00
19777;BME280;10047;42.490;26.012;2023-04-02T08:30:14;97245.84;;;17.86;100.00
19777;BME280;10047;42.490;26.012;2023-04-02T08:32:40;97273.66;;;17.90;100.00
19777;BME280;10047;42.490;26.012;2023-04-02T08:35:07;97255.19;;;18.53;100.00
19777;BME280;10047;42.490;26.012;2023-04-02T08:37:34;97297.97;;;18.70;100.00
19777;BME280;10047;42.490;26.012;2023-04-02T08:39:59;97411.22;;;17.69;100.00
19777;BME280;10047;42.490;26.012;2023-04-02T08:42:46;97459.28;;;17.23;100.00
19777;BME280;10047;42.490;26.012;2023-04-02T08:47:58;97402.81;;;18.18;100.00
19777;BME280;10047;42.490;26.012;2023-04-02T08:52:57;97526.03;;;18.55;100.00
19777;BME280;10047;42.490;26.012;2023-04-02T09:00:52;97802.00;;;17.94;100.00
19777;BME280;10047;42.490;26.012;2023-04-02T09:05:49;97933.16;;;18.22;100.00
19777;BME280;10047;42.490;26.012;2023-04-02T09:08:24;97925.13;;;18.34;100.00
19777;BME280;10047;42.490;26.012;2023-04-02T09:13:21;98026.81;;;18.29;100.00
19777;BME280;10047;42.490;26.012;2023-04-02T09:15:49;98032.50;;;18.42;100.00
19777;BME280;10047;42.490;26.012;2023-04-02T09:18:18;97982.16;;;18.66;100.00
19777;BME280;10047;42.490;26.012;2023-04-02T09:20:44;98069.53;;;18.68;100.00
19777;BME280;10047;42.490;26.012;2023-04-02T09:23:21;98108.75;;;18.14;100.00
19777;BME280;10047;42.490;26.012;2023-04-02T09:25:50;98098.31;;;18.44;100.00
19777;BME280;10047;42.490;26.012;2023-04-02T09:28:16;98056.66;;;17.93;100.00
19777;BME280;10047;42.490;26.012;2023-04-02T09:31:04;98113.03;;;17.56;100.00
19777;BME280;10047;42.490;26.012;2023-04-02T09:36:09;98048.69;;;17.18;100.00
19777;BME280;10047;42.490;26.012;2023-04-02T09:38:55;98050.16;;;17.70;100.00
19777;BME280;10047;42.490;26.012;2023-04-02T09:41:27;98108.34;;;18.09;100.00
19777;BME280;10047;42.490;26.012;2023-04-02T09:44:31;98122.13;;;17.70;100.00
19777;BME280;10047;42.490;26.012;2023-04-02T09:46:57;98138.91;;;17.74;100.00
19777;BME280;10047;42.490;26.012;2023-04-02T09:49:30;98082.00;;;16.89;100.00
19777;BME280;10047;42.490;26.012;2023-04-02T09:52:28;98160.31;;;18.03;100.00
19777;BME280;10047;42.490;26.012;2023-04-02T09:57:48;98215.75;;;17.77;100.00
19777;BME280;10047;42.490;26.012;2023-04-02T10:02:45;98195.00;;;18.56;100.00
19777;BME280;10047;42.490;26.012;2023-04-02T10:05:21;98252.47;;;18.57;100.00
19777;BME280;10047;42.490;26.012;2023-04-02T10:07:51;98228.00;;;17.33;100.00
19777;BME280;10047;42.490;26.012;2023-04-02T10:12:59;98304.78;;;18.67;100.00
19777;BME280;10047;42.490;26.012;2023-04-02T10:15:36;98313.41;;;17.67;100.00
19777;BME280;10047;42.490;26.012;2023-04-02T10:18:21;98282.56;;;17.67;100.00
19777;BME280;10047;42.490;26.012;2023-04-02T10:20:52;98303.97;;;17.77;100.00
19777;BME280;10047;42.490;26.012;2023-04-02T10:23:29;98290.34;;;18.26;100.00
19777;BME280;10047;42.490;26.012;2023-04-02T10:28:40;98346.16;;;19.69;100.00
19777;BME280;10047;42.490;26.012;2023-04-02T10:31:25;98337.75;;;19.67;100.00
19777;BME280;10047;42.490;26.012;2023-04-02T10:34:03;98341.09;;;18.83;100.00
19777;BME280;10047;42.490;26.012;2023-04-02T10:36:48;98435.03;;;19.94;100.00
19777;BME280;10047;42.490;26.012;2023-04-02T10:39:24;98485.91;;;20.11;100.00
19777;BME280;10047;42.490;26.012;2023-04-02T10:42:03;98516.25;;;19.61;100.00
19777;BME280;10047;42.490;26.012;2023-04-02T10:50:17;98689.38;;;21.75;100.00
19777;BME280;10047;42.490;26.012;2023-04-02T10:52:56;98775.03;;;21.35;100.00
19777;BME280;10047;42.490;26.012;2023-04-02T10:55:25;98818.47;;;21.03;100.00
19777;BME280;10047;42.490;26.012;2023-04-02T10:57:52;98848.50;;;20.75;100.00
19777;BME280;10047;42.490;26.012;2023-04-02T11:00:24;98899.09;;;20.97;100.00
19777;BME280;10047;42.490;26.012;2023-04-02T11:05:42;99120.16;;;20.70;100.00
19777;BME280;10047;42.490;26.012;2023-04-02T11:08:24;99149.25;;;21.53;100.00
19777;BME280;10047;42.490;26.012;2023-04-02T11:11:12;99167.47;;;21.42;100.00
19777;BME280;10047;42.490;26.012;2023-04-02T11:14:00;99177.19;;;21.69;100.00
19777;BME280;10047;42.490;26.012;2023-04-02T11:16:24;99149.13;;;20.74;100.00
19777;BME280;10047;42.490;26.012;2023-04-02T11:24:04;99170.44;;;21.87;100.00
19777;BME280;10047;42.490;26.012;2023-04-02T12:01:08;99219.44;;;21.79;100.00
19777;BME280;10047;42.490;26.012;2023-04-02T12:09:27;99222.75;;;21.81;100.00
19777;BME280;10047;42.490;26.012;2023-04-02T12:11:59;99228.41;;;20.94;100.00
19777;BME280;10047;42.490;26.012;2023-04-02T12:17:04;99155.47;;;21.41;100.00
19777;BME280;10047;42.490;26.012;2023-04-02T12:19:38;99212.13;;;21.14;100.00
19777;BME280;10047;42.490;26.012;2023-04-02T12:22:04;99139.56;;;21.46;100.00
19777;BME280;10047;42.490;26.012;2023-04-02T12:24:30;99209.22;;;22.17;100.00
19777;BME280;10047;42.490;26.012;2023-04-02T12:27:10;99160.59;;;21.72;100.00
19777;BME280;10047;42.490;26.012;2023-04-02T12:29:41;99218.75;;;21.77;97.82
19777;BME280;10047;42.490;26.012;2023-04-02T12:32:19;99201.94;;;21.22;98.62
19777;BME280;10047;42.490;26.012;2023-04-02T12:34:46;99150.31;;;22.19;96.37
19777;BME280;10047;42.490;26.012;2023-04-02T12:37:20;99228.31;;;22.83;96.91
19777;BME280;10047;42.490;26.012;2023-04-02T12:40:15;99208.25;;;22.57;93.34
19777;BME280;10047;42.490;26.012;2023-04-02T12:42:41;99138.84;;;21.84;90.25
19777;BME280;10047;42.490;26.012;2023-04-02T12:45:29;99188.78;;;22.62;86.06
19777;BME280;10047;42.490;26.012;2023-04-02T12:47:59;99138.13;;;21.63;81.44
19777;BME280;10047;42.490;26.012;2023-04-02T12:50:26;99202.56;;;22.82;79.68
19777;BME280;10047;42.490;26.012;2023-04-02T12:52:57;99221.22;;;22.37;80.62
19777;BME280;10047;42.490;26.012;2023-04-02T12:55:25;99162.03;;;22.52;83.28
19777;BME280;10047;42.490;26.012;2023-04-02T12:57:55;99090.41;;;21.36;79.23
19777;BME280;10047;42.490;26.012;2023-04-02T13:05:46;99152.50;;;22.43;83.85
19777;BME280;10047;42.490;26.012;2023-04-02T13:08:37;99212.25;;;22.80;80.27
19777;BME280;10047;42.490;26.012;2023-04-02T13:11:04;99088.81;;;21.64;81.03
19777;BME280;10047;42.490;26.012;2023-04-02T13:13:34;99190.91;;;22.00;86.28
19777;BME280;10047;42.490;26.012;2023-04-02T13:16:25;99143.09;;;22.04;83.84
19777;BME280;10047;42.490;26.012;2023-04-02T13:19:11;99199.25;;;22.22;83.46
19777;BME280;10047;42.490;26.012;2023-04-02T13:21:44;99073.06;;;20.57;87.86
19777;BME280;10047;42.490;26.012;2023-04-02T13:26:46;99142.56;;;22.00;79.67
19777;BME280;10047;42.490;26.012;2023-04-02T13:31:52;99199.53;;;22.00;78.54
19777;BME280;10047;42.490;26.012;2023-04-02T13:34:18;99084.03;;;21.69;78.46
19777;BME280;10047;42.490;26.012;2023-04-02T13:36:44;99138.06;;;22.02;75.24
19777;BME280;10047;42.490;26.012;2023-04-02T13:39:09;99142.25;;;22.70;76.75
19777;BME280;10047;42.490;26.012;2023-04-02T13:41:59;99188.91;;;22.80;71.80
19777;BME280;10047;42.490;26.012;2023-04-02T13:44:27;99181.13;;;22.70;71.48
19777;BME280;10047;42.490;26.012;2023-04-02T13:46:54;99176.22;;;22.00;72.08
19777;BME280;10047;42.490;26.012;2023-04-02T13:49:21;99178.19;;;23.02;72.14
19777;BME280;10047;42.490;26.012;2023-04-02T13:51:49;99172.19;;;23.01;68.91
19777;BME280;10047;42.490;26.012;2023-04-02T13:54:52;99158.47;;;22.53;66.68
19777;BME280;10047;42.490;26.012;2023-04-02T13:57:17;99192.16;;;22.24;67.12
19777;BME280;10047;42.490;26.012;2023-04-02T13:59:42;99097.31;;;22.14;69.03
19777;BME280;10047;42.490;26.012;2023-04-02T14:02:15;99165.19;;;21.98;68.57
19777;BME280;10047;42.490;26.012;2023-04-02T14:04:45;99175.69;;;22.64;66.90
19777;BME280;10047;42.490;26.012;2023-04-02T14:07:27;99181.94;;;22.71;67.45
19777;BME280;10047;42.490;26.012;2023-04-02T14:13:02;99166.19;;;23.01;74.43
19777;BME280;10047;42.490;26.012;2023-04-02T14:21:50;99150.81;;;22.80;76.39
19777;BME280;10047;42.490;26.012;2023-04-02T14:27:23;99162.06;;;22.62;74.80
19777;BME280;10047;42.490;26.012;2023-04-02T14:33:01;99168.16;;;22.13;76.96
19777;BME280;10047;42.490;26.012;2023-04-02T14:35:37;99093.03;;;21.16;80.84
19777;BME280;10047;42.490;26.012;2023-04-02T14:38:49;99162.44;;;22.28;77.12
19777;BME280;10047;42.490;26.012;2023-04-02T14:41:28;99121.81;;;22.29;74.88
19777;BME280;10047;42.490;26.012;2023-04-02T14:44:02;99108.97;;;22.47;74.37
19777;BME280;10047;42.490;26.012;2023-04-02T14:46:30;99092.47;;;21.52;73.94
19777;BME280;10047;42.490;26.012;2023-04-02T14:52:03;99163.66;;;21.96;70.27
19777;BME280;10047;42.490;26.012;2023-04-02T14:54:55;99165.22;;;21.68;74.54
19777;BME280;10047;42.490;26.012;2023-04-02T14:57:30;99160.13;;;21.47;80.18
19777;BME280;10047;42.490;26.012;2023-04-02T15:02:44;99159.69;;;21.33;82.76
19777;BME280;10047;42.490;26.012;2023-04-02T15:13:26;99108.19;;;20.28;84.81
19777;BME280;10047;42.490;26.012;2023-04-02T15:15:57;99079.53;;;19.79;83.39
19777;BME280;10047;42.490;26.012;2023-04-02T15:18:28;99123.97;;;20.46;83.69
19777;BME280;10047;42.490;26.012;2023-04-02T15:23:40;99194.72;;;21.56;81.46
19777;BME280;10047;42.490;26.012;2023-04-02T15:31:39;99075.72;;;19.94;81.52
19777;BME280;10047;42.490;26.012;2023-04-02T15:34:30;99141.13;;;20.04;80.71
19777;BME280;10047;42.490;26.012;2023-04-02T15:39:48;99192.25;;;20.53;83.64
19777;BME280;10047;42.490;26.012;2023-04-02T15:42:20;99213.72;;;20.74;83.69
19777;BME280;10047;42.490;26.012;2023-04-02T15:50:41;99206.75;;;20.33;80.00
19777;BME280;10047;42.490;26.012;2023-04-02T15:53:41;99206.66;;;20.13;79.24
19777;BME280;10047;42.490;26.012;2023-04-02T15:56:25;99121.94;;;19.54;78.61
19777;BME280;10047;42.490;26.012;2023-04-02T15:59:15;99223.38;;;20.20;78.75
19777;BME280;10047;42.490;26.012;2023-04-02T16:09:34;99237.75;;;20.33;80.40
19777;BME280;10047;42.490;26.012;2023-04-02T16:12:13;99231.53;;;20.36;81.59
19777;BME280;10047;42.490;26.012;2023-04-02T16:14:41;99162.91;;;19.79;82.99
19777;BME280;10047;42.490;26.012;2023-04-02T16:20:27;99239.22;;;19.93;87.31
19777;BME280;10047;42.490;26.012;2023-04-02T16:23:01;99237.72;;;19.91;88.34
19777;BME280;10047;42.490;26.012;2023-04-02T16:25:33;99198.34;;;19.55;85.74
19777;BME280;10047;42.490;26.012;2023-04-02T16:31:42;99175.22;;;19.10;96.45
19777;BME280;10047;42.490;26.012;2023-04-02T16:39:40;99259.91;;;19.14;97.89
19777;BME280;10047;42.490;26.012;2023-04-02T16:51:12;99258.19;;;18.80;100.00
19777;BME280;10047;42.490;26.012;2023-04-02T16:54:04;99262.44;;;18.57;100.00
19777;BME280;10047;42.490;26.012;2023-04-02T16:56:57;99174.09;;;18.09;100.00
19777;BME280;10047;42.490;26.012;2023-04-02T17:02:01;99258.34;;;18.42;100.00
19777;BME280;10047;42.490;26.012;2023-04-02T17:12:35;99245.63;;;17.68;100.00
19777;BME280;10047;42.490;26.012;2023-04-02T17:17:41;99229.19;;;17.33;100.00
19777;BME280;10047;42.490;26.012;2023-04-02T17:20:17;99207.19;;;17.29;100.00
19777;BME280;10047;42.490;26.012;2023-04-02T17:22:43;99213.34;;;17.52;100.00
19777;BME280;10047;42.490;26.012;2023-04-02T17:25:17;99195.38;;;17.14;100.00
19777;BME280;10047;42.490;26.012;2023-04-02T17:27:47;99133.53;;;16.67;100.00
19777;BME280;10047;42.490;26.012;2023-04-02T17:32:50;99142.56;;;16.72;100.00
19777;BME280;10047;42.490;26.012;2023-04-02T17:41:02;99161.28;;;16.99;100.00
19777;BME280;10047;42.490;26.012;2023-04-02T17:49:21;99162.19;;;16.73;100.00
19777;BME280;10047;42.490;26.012;2023-04-02T17:57:05;99167.72;;;16.92;100.00